Time;durP1;ratioP1;P1;durP2;ratioP2;P2;SDS_P1;SDS_P2;PMS_P1;PMS_P2;Temp;Humidity;BMP_temperature;BMP_pressure;BME280_temperature;BME280_humidity;BME280_pressure;Samples;Min_cycle;Max_cycle;Signal;HPM_P1;HPM_P2
2021/07/08 00:01:57;;;;;;;2.00;1.60;;;19.70;99.90;;;;;;4956632;28;20027;-86
2021/07/08 00:04:23;;;;;;;2.42;1.70;;;19.70;99.90;;;;;;4955343;28;20440;-87
2021/07/08 00:06:48;;;;;;;5.90;1.77;;;19.70;99.90;;;;;;4954802;28;20034;-86
2021/07/08 00:09:14;;;;;;;5.07;1.90;;;19.70;99.90;;;;;;4957971;28;20388;-87
2021/07/08 00:11:40;;;;;;;2.30;1.45;;;19.60;99.90;;;;;;4955205;28;20031;-86
2021/07/08 00:14:07;;;;;;;1.63;1.52;;;19.60;99.90;;;;;;4956036;28;20035;-86
2021/07/08 00:16:33;;;;;;;1.50;1.40;;;19.70;99.90;;;;;;4955452;28;20106;-87
2021/07/08 00:19:00;;;;;;;1.77;1.30;;;19.70;99.90;;;;;;4956076;28;20129;-86
2021/07/08 00:21:26;;;;;;;1.98;1.67;;;19.80;99.90;;;;;;4955749;28;20046;-87
2021/07/08 00:23:52;;;;;;;4.65;1.52;;;19.70;99.90;;;;;;4956194;28;20042;-86
2021/07/08 00:26:18;;;;;;;2.08;1.42;;;19.60;99.90;;;;;;4955891;28;20071;-86
2021/07/08 00:28:43;;;;;;;1.73;1.55;;;19.60;99.90;;;;;;4955713;28;20034;-87
2021/07/08 00:31:09;;;;;;;1.48;1.35;;;19.60;99.90;;;;;;4954742;28;20039;-86
2021/07/08 00:33:35;;;;;;;2.65;1.40;;;19.70;99.90;;;;;;4955612;28;20058;-86
2021/07/08 00:36:01;;;;;;;5.18;1.40;;;19.90;99.90;;;;;;4955171;28;20027;-87
2021/07/08 00:38:27;;;;;;;2.13;1.50;;;19.90;99.90;;;;;;4955753;28;20023;-86
2021/07/08 00:40:53;;;;;;;2.00;1.25;;;19.90;99.90;;;;;;4955661;28;20019;-86
2021/07/08 00:43:19;;;;;;;3.28;1.40;;;19.80;99.90;;;;;;4950734;28;20030;-86
2021/07/08 00:45:45;;;;;;;2.70;1.30;;;19.70;99.90;;;;;;4954930;28;20053;-86
2021/07/08 00:48:11;;;;;;;2.97;1.60;;;19.50;99.90;;;;;;4965772;28;20023;-86
2021/07/08 00:50:42;;;;;;;2.45;1.50;;;19.40;99.90;;;;;;4946232;28;20714;-87
2021/07/08 00:53:11;;;;;;;2.00;1.30;;;19.30;99.90;;;;;;4955455;28;20094;-87
2021/07/08 00:55:37;;;;;;;1.40;1.30;;;19.30;99.90;;;;;;4954955;28;20496;-86
2021/07/08 00:58:04;;;;;;;1.40;1.27;;;19.30;99.90;;;;;;4956231;28;20113;-87
2021/07/08 01:00:35;;;;;;;1.38;1.27;;;19.30;99.90;;;;;;4954662;28;20054;-86
2021/07/08 01:03:08;;;;;;;3.13;1.50;;;19.10;99.90;;;;;;4955310;28;20019;-86
2021/07/08 01:05:37;;;;;;;1.30;1.20;;;19.10;99.90;;;;;;4955009;28;20070;-86
2021/07/08 01:08:07;;;;;;;2.88;1.40;;;19.00;99.90;;;;;;4955435;28;20023;-86
2021/07/08 01:10:33;;;;;;;4.13;1.33;;;18.90;99.90;;;;;;4954725;28;20027;-86
2021/07/08 01:12:59;;;;;;;1.58;1.25;;;18.90;99.90;;;;;;4954530;28;20558;-87
2021/07/08 01:15:25;;;;;;;3.83;1.10;;;18.90;99.90;;;;;;4969446;28;20031;-87
2021/07/08 01:17:51;;;;;;;1.45;1.30;;;18.80;99.90;;;;;;4957395;28;20031;-87
2021/07/08 01:20:20;;;;;;;2.30;1.13;;;18.70;99.90;;;;;;4954902;28;20027;-87
2021/07/08 01:22:48;;;;;;;1.38;1.15;;;18.60;99.90;;;;;;4953465;28;20415;-86
2021/07/08 01:25:15;;;;;;;3.17;1.30;;;18.60;99.90;;;;;;4954277;28;20023;-86
2021/07/08 01:27:42;;;;;;;1.95;0.90;;;18.60;1.00;;;;;;4954634;28;20482;-86
2021/07/08 01:30:10;;;;;;;2.70;1.30;;;18.70;99.90;;;;;;4954238;28;20027;-87
2021/07/08 01:32:36;;;;;;;2.30;1.10;;;18.80;99.90;;;;;;4969760;28;20041;-87
2021/07/08 01:35:07;;;;;;;1.23;1.10;;;18.90;99.90;;;;;;4956057;28;20559;-86
2021/07/08 01:37:33;;;;;;;1.73;1.20;;;19.10;1.00;;;;;;4954019;28;20027;-86
2021/07/08 01:40:00;;;;;;;1.77;1.08;;;18.90;1.00;;;;;;4954549;28;20467;-86
2021/07/08 01:42:27;;;;;;;1.50;1.30;;;18.90;1.00;;;;;;4954556;28;20406;-87
2021/07/08 01:44:53;;;;;;;2.10;1.20;;;19.00;1.00;;;;;;4954043;28;20073;-86
2021/07/08 01:47:19;;;;;;;1.33;1.23;;;19.00;1.00;;;;;;4955905;28;20039;-86
2021/07/08 01:49:45;;;;;;;3.83;1.35;;;19.30;1.00;;;;;;4954290;28;20101;-87
2021/07/08 01:52:10;;;;;;;1.88;1.00;;;19.10;1.00;;;;;;4952397;28;20045;-86
2021/07/08 01:54:36;;;;;;;1.60;1.00;;;19.00;1.00;;;;;;4953896;28;20415;-86
2021/07/08 01:57:02;;;;;;;1.08;0.98;;;18.90;1.00;;;;;;4954420;28;20035;-87
2021/07/08 01:59:27;;;;;;;2.88;1.08;;;18.90;1.00;;;;;;4953750;28;20115;-86
2021/07/08 02:01:53;;;;;;;2.22;1.20;;;19.30;1.00;;;;;;4954683;28;20511;-87
2021/07/08 02:04:19;;;;;;;0.80;0.80;;;19.00;1.00;;;;;;4953706;28;20038;-86
2021/07/08 02:06:44;;;;;;;0.98;0.98;;;18.90;1.00;;;;;;4954254;28;20047;-86
2021/07/08 02:09:10;;;;;;;1.05;1.00;;;18.90;1.00;;;;;;4954075;28;20041;-86
2021/07/08 02:11:37;;;;;;;2.25;1.30;;;18.90;1.00;;;;;;4954174;28;20122;-86
2021/07/08 02:14:03;;;;;;;1.45;1.10;;;18.80;1.00;;;;;;4955492;28;20499;-86
2021/07/08 02:16:29;;;;;;;4.00;1.20;;;18.90;1.00;;;;;;4953091;28;20027;-86
2021/07/08 02:18:55;;;;;;;3.78;1.17;;;18.90;1.00;;;;;;4954123;28;20110;-86
2021/07/08 02:21:21;;;;;;;1.92;1.15;;;18.80;1.00;;;;;;4954031;28;20027;-86
2021/07/08 02:23:47;;;;;;;2.47;1.10;;;18.90;1.00;;;;;;4954032;28;20032;-86
2021/07/08 02:26:13;;;;;;;4.72;1.20;;;19.00;1.00;;;;;;4954171;28;20416;-86
2021/07/08 02:28:40;;;;;;;1.10;1.00;;;18.90;1.00;;;;;;4953666;28;20058;-86
2021/07/08 02:31:06;;;;;;;3.42;1.27;;;18.80;1.00;;;;;;4952775;28;20508;-87
2021/07/08 02:33:33;;;;;;;3.20;1.23;;;18.60;1.00;;;;;;4954823;28;20081;-86
2021/07/08 02:35:59;;;;;;;1.65;1.00;;;18.50;1.00;;;;;;4957737;28;20030;-86
2021/07/08 02:38:24;;;;;;;2.55;1.83;;;18.50;1.00;;;;;;4972456;28;20027;-86
2021/07/08 02:40:50;;;;;;;2.90;1.20;;;18.50;1.00;;;;;;4957645;28;20027;-86
2021/07/08 02:43:16;;;;;;;2.13;1.30;;;18.60;1.00;;;;;;4956525;28;20393;-86
2021/07/08 02:45:43;;;;;;;3.70;1.40;;;18.40;1.00;;;;;;4957815;28;20098;-86
2021/07/08 02:48:12;;;;;;;1.65;1.15;;;18.40;1.00;;;;;;4957283;28;20027;-86
2021/07/08 02:50:42;;;;;;;3.03;1.30;;;18.50;1.00;;;;;;4957280;28;20117;-86
2021/07/08 02:53:11;;;;;;;2.40;1.30;;;18.50;1.00;;;;;;4957800;28;20032;-86
2021/07/08 02:55:38;;;;;;;2.70;1.40;;;18.40;1.00;;;;;;4957684;28;20038;-86
2021/07/08 02:58:04;;;;;;;1.20;1.02;;;18.40;1.00;;;;;;4956279;28;20051;-86
2021/07/08 03:00:30;;;;;;;2.20;1.42;;;18.40;1.00;;;;;;4957282;28;20106;-86
2021/07/08 03:02:56;;;;;;;3.13;1.40;;;18.40;1.00;;;;;;4957389;28;20596;-86
2021/07/08 03:05:22;;;;;;;1.73;1.30;;;18.50;1.00;;;;;;4957342;28;20384;-86
2021/07/08 03:07:48;;;;;;;3.63;1.23;;;18.50;1.00;;;;;;4957591;28;20031;-86
2021/07/08 03:10:16;;;;;;;2.40;1.15;;;18.40;1.00;;;;;;4956301;28;20480;-86
2021/07/08 03:12:42;;;;;;;3.25;1.20;;;18.30;1.00;;;;;;4956969;28;20106;-86
2021/07/08 03:15:09;;;;;;;3.30;1.30;;;18.20;1.00;;;;;;4956988;28;20019;-86
2021/07/08 03:17:36;;;;;;;2.20;1.40;;;18.10;1.00;;;;;;4957097;28;20058;-86
2021/07/08 03:20:04;;;;;;;1.92;1.48;;;18.10;1.00;;;;;;4957067;28;20051;-87
2021/07/08 03:22:29;;;;;;;2.17;1.65;;;18.00;1.00;;;;;;4956511;28;20043;-87
2021/07/08 03:24:55;;;;;;;3.47;1.90;;;17.90;1.00;;;;;;4955800;28;20027;-87
2021/07/08 03:27:21;;;;;;;2.40;1.73;;;17.90;1.00;;;;;;4956553;28;20039;-87
2021/07/08 03:29:46;;;;;;;3.28;1.50;;;17.80;1.00;;;;;;4956515;28;20034;-87
2021/07/08 03:32:12;;;;;;;1.90;1.55;;;17.70;1.00;;;;;;4956823;28;20043;-87
2021/07/08 03:34:38;;;;;;;2.22;1.42;;;17.90;1.00;;;;;;4957067;28;20567;-87
2021/07/08 03:37:03;;;;;;;1.90;1.73;;;17.90;1.00;;;;;;4956050;28;20031;-87
2021/07/08 03:39:29;;;;;;;2.90;1.70;;;18.00;1.00;;;;;;4956093;28;20024;-86
2021/07/08 03:41:55;;;;;;;3.08;1.50;;;18.00;1.00;;;;;;4956741;28;20035;-87
2021/07/08 03:44:20;;;;;;;4.32;1.80;;;18.00;1.00;;;;;;4957913;28;20023;-86
2021/07/08 03:46:46;;;;;;;2.38;1.50;;;18.00;1.00;;;;;;4955549;28;20459;-87
2021/07/08 03:49:12;;;;;;;4.10;1.60;;;18.00;1.00;;;;;;4955683;28;20524;-87
2021/07/08 03:51:39;;;;;;;3.58;1.77;;;18.00;1.00;;;;;;4955436;28;20620;-84
2021/07/08 03:54:06;;;;;;;1.73;1.42;;;17.80;1.00;;;;;;4956017;28;20031;-87
2021/07/08 03:56:31;;;;;;;2.00;1.58;;;17.60;1.00;;;;;;4956094;28;20042;-85
2021/07/08 03:58:57;;;;;;;5.85;1.70;;;17.50;1.00;;;;;;4956520;28;20032;-85
2021/07/08 04:01:23;;;;;;;5.15;2.00;;;17.40;1.00;;;;;;4954021;29;20507;-84
2021/07/08 04:03:48;;;;;;;1.60;1.50;;;17.50;1.00;;;;;;4958378;28;20078;-83
2021/07/08 04:06:14;;;;;;;3.03;1.52;;;17.40;1.00;;;;;;4956146;28;20039;-84
2021/07/08 04:08:40;;;;;;;5.05;1.65;;;17.30;1.00;;;;;;4955618;28;20031;-86
2021/07/08 04:11:05;;;;;;;1.70;1.60;;;17.30;1.00;;;;;;4957466;28;20077;-85
2021/07/08 04:13:31;;;;;;;2.70;1.70;;;17.40;1.00;;;;;;4955307;28;20031;-85
2021/07/08 04:15:56;;;;;;;2.03;1.67;;;17.50;1.00;;;;;;4956394;28;20455;-85
2021/07/08 04:18:22;;;;;;;2.65;1.65;;;17.60;1.00;;;;;;4954691;28;20031;-89
2021/07/08 04:20:48;;;;;;;2.03;1.52;;;17.50;1.00;;;;;;4957745;28;20082;-91
2021/07/08 04:23:15;;;;;;;2.47;1.75;;;17.60;1.00;;;;;;4958284;28;20030;-92
2021/07/08 04:25:41;;;;;;;4.20;2.00;;;17.70;1.00;;;;;;4956855;28;20475;-91
2021/07/08 04:28:08;;;;;;;2.15;1.70;;;17.70;1.00;;;;;;4957374;28;20028;-90
2021/07/08 04:30:35;;;;;;;1.83;1.60;;;17.80;1.00;;;;;;4957569;28;20123;-87
2021/07/08 04:33:00;;;;;;;3.83;1.80;;;18.00;1.00;;;;;;4955913;28;20117;-88
2021/07/08 04:35:39;;;;;;;3.50;2.00;;;18.10;1.00;;;;;;4956147;28;20118;-87
2021/07/08 04:38:07;;;;;;;5.78;2.00;;;18.10;1.00;;;;;;4955664;28;20023;-88
2021/07/08 04:40:33;;;;;;;3.13;2.00;;;18.00;1.00;;;;;;4955016;28;20118;-88
2021/07/08 04:42:59;;;;;;;2.40;1.90;;;18.00;1.00;;;;;;4953831;28;20030;-87
2021/07/08 04:45:25;;;;;;;3.78;1.95;;;17.90;1.00;;;;;;4955792;28;20035;-88
2021/07/08 04:47:51;;;;;;;2.67;1.90;;;17.90;1.00;;;;;;4955406;28;20027;-87
2021/07/08 04:50:21;;;;;;;2.25;1.80;;;18.00;1.00;;;;;;4957021;28;20050;-88
2021/07/08 04:52:48;;;;;;;4.88;2.10;;;18.10;1.00;;;;;;4955446;28;20110;-88
2021/07/08 04:55:15;;;;;;;6.63;1.85;;;18.20;1.00;;;;;;4954712;28;20031;-87
2021/07/08 04:57:41;;;;;;;2.67;1.70;;;18.20;1.00;;;;;;4955499;28;20035;-88
2021/07/08 05:00:09;;;;;;;4.93;1.75;;;18.30;1.00;;;;;;4955020;28;20050;-88
2021/07/08 05:02:39;;;;;;;4.18;2.13;;;18.40;1.00;;;;;;4955567;28;20074;-88
2021/07/08 05:05:07;;;;;;;4.30;2.17;;;18.50;1.00;;;;;;4955550;28;20035;-88
2021/07/08 05:07:33;;;;;;;4.90;2.00;;;18.60;1.00;;;;;;4954257;28;20480;-88
2021/07/08 05:09:59;;;;;;;4.50;2.10;;;18.60;1.00;;;;;;4954805;28;20027;-87
2021/07/08 05:12:25;;;;;;;6.18;2.28;;;18.70;1.00;;;;;;4954965;28;20535;-88
2021/07/08 05:14:51;;;;;;;3.63;2.22;;;18.90;1.00;;;;;;4953834;28;20016;-87
2021/07/08 05:17:18;;;;;;;3.30;2.30;;;19.00;1.00;;;;;;4955060;28;20408;-88
2021/07/08 05:19:47;;;;;;;2.58;2.10;;;19.10;1.00;;;;;;4955091;28;20035;-87
2021/07/08 05:22:16;;;;;;;4.15;2.80;;;19.00;1.00;;;;;;4954686;28;20031;-88
2021/07/08 05:24:42;;;;;;;5.43;3.40;;;19.10;1.00;;;;;;4955287;28;20051;-88
2021/07/08 05:27:12;;;;;;;4.18;3.75;;;19.10;1.00;;;;;;4954872;28;20019;-87
2021/07/08 05:29:38;;;;;;;5.95;3.45;;;19.10;1.00;;;;;;4955004;28;20535;-88
2021/07/08 05:32:04;;;;;;;4.90;3.90;;;19.20;1.00;;;;;;4954764;28;20042;-87
2021/07/08 05:34:30;;;;;;;4.07;3.08;;;19.10;1.00;;;;;;4953784;28;20027;-86
2021/07/08 05:36:55;;;;;;;4.15;2.90;;;19.10;1.00;;;;;;4954266;28;20112;-87
2021/07/08 05:39:21;;;;;;;3.25;2.90;;;19.00;1.00;;;;;;4954951;28;20106;-88
2021/07/08 05:41:47;;;;;;;4.70;4.20;;;18.90;1.00;;;;;;4969564;28;20031;-86
2021/07/08 05:44:12;;;;;;;4.60;3.90;;;18.70;1.00;;;;;;4954189;28;20484;-87
2021/07/08 05:46:38;;;;;;;5.88;4.75;;;18.70;1.00;;;;;;4954469;28;20042;-87
2021/07/08 05:49:04;;;;;;;6.28;5.50;;;18.70;1.00;;;;;;4953568;28;20377;-87
2021/07/08 05:51:31;;;;;;;2.92;2.38;;;18.60;1.00;;;;;;4953887;28;20404;-87
2021/07/08 05:53:59;;;;;;;3.63;2.63;;;18.60;1.00;;;;;;4955031;28;20207;-87
2021/07/08 05:56:25;;;;;;;4.45;2.42;;;18.50;1.00;;;;;;4954752;28;20039;-93
2021/07/08 05:58:51;;;;;;;3.85;2.53;;;18.50;1.00;;;;;;4959548;28;20022;-93
2021/07/08 06:01:18;;;;;;;3.83;2.17;;;18.40;1.00;;;;;;4975209;28;20035;-93
2021/07/08 06:03:44;;;;;;;2.67;1.75;;;18.50;1.00;;;;;;4975895;28;20099;-93
2021/07/08 06:06:09;;;;;;;5.10;2.10;;;18.70;1.00;;;;;;4964925;28;20039;-93
2021/07/08 06:08:35;;;;;;;4.25;2.28;;;18.70;1.00;;;;;;4955831;28;20060;-93
2021/07/08 06:11:01;;;;;;;2.38;1.95;;;18.60;1.00;;;;;;4958359;28;20061;-92
2021/07/08 06:13:26;;;;;;;2.88;1.60;;;18.50;1.00;;;;;;4975084;28;20027;-92
2021/07/08 06:15:52;;;;;;;3.83;1.98;;;18.50;1.00;;;;;;4956518;28;20031;-92
2021/07/08 06:18:17;;;;;;;4.38;1.83;;;18.40;1.00;;;;;;4955211;28;20028;-89
2021/07/08 06:20:43;;;;;;;3.38;2.10;;;18.40;1.00;;;;;;4953813;28;20378;-88
2021/07/08 06:23:09;;;;;;;2.00;1.80;;;18.40;1.00;;;;;;4953735;28;20055;-90
2021/07/08 06:25:34;;;;;;;3.45;1.90;;;18.50;1.00;;;;;;4953176;28;20034;-86
2021/07/08 06:28:00;;;;;;;2.33;2.00;;;18.50;1.00;;;;;;4953762;28;20027;-89
2021/07/08 06:30:26;;;;;;;3.20;2.20;;;18.50;1.00;;;;;;4954430;28;20046;-89
2021/07/08 06:32:51;;;;;;;4.53;1.80;;;18.60;1.00;;;;;;4953676;28;20027;-91
2021/07/08 06:35:18;;;;;;;5.63;2.17;;;18.60;1.00;;;;;;4953858;28;20030;-87
2021/07/08 06:37:46;;;;;;;3.08;2.15;;;18.60;1.00;;;;;;4954245;28;20049;-86
2021/07/08 06:40:13;;;;;;;5.07;1.90;;;18.50;1.00;;;;;;4953113;28;20155;-87
2021/07/08 06:42:39;;;;;;;4.20;2.03;;;18.60;1.00;;;;;;4956482;28;20039;-86
2021/07/08 06:45:06;;;;;;;3.85;2.13;;;18.70;1.00;;;;;;4953761;28;20477;-86
2021/07/08 06:48:01;;;;;;;3.25;2.25;;;18.60;1.00;;;;;;4953870;28;20035;-87
2021/07/08 06:50:19;;;;;;;3.72;2.13;;;18.60;1.00;;;;;;4952862;28;20043;-86
2021/07/08 06:52:46;;;;;;;2.78;2.22;;;18.80;1.00;;;;;;4954218;28;20026;-87
2021/07/08 06:55:12;;;;;;;2.35;2.15;;;18.80;1.00;;;;;;4953236;28;20057;-86
2021/07/08 06:57:50;;;;;;;4.70;2.88;;;18.80;1.00;;;;;;4953892;28;20051;-86
2021/07/08 07:00:20;;;;;;;5.18;2.30;;;18.80;1.00;;;;;;4953509;28;20031;-86
2021/07/08 07:02:46;;;;;;;4.72;2.60;;;18.90;1.00;;;;;;4953074;28;20043;-86
2021/07/08 07:05:12;;;;;;;3.40;3.10;;;18.90;1.00;;;;;;4953957;28;20034;-86
2021/07/08 07:07:38;;;;;;;4.32;2.75;;;19.20;1.00;;;;;;4952437;28;20578;-86
2021/07/08 07:10:04;;;;;;;4.10;2.75;;;19.10;1.00;;;;;;4951111;29;20030;-87
2021/07/08 07:12:30;;;;;;;5.43;2.75;;;19.00;1.00;;;;;;4954048;28;20047;-87
2021/07/08 07:14:55;;;;;;;3.45;2.28;;;19.10;1.00;;;;;;4953435;28;20397;-87
2021/07/08 07:17:21;;;;;;;4.13;2.10;;;19.20;1.00;;;;;;4953106;28;20031;-87
2021/07/08 07:19:46;;;;;;;7.07;5.25;;;19.20;1.00;;;;;;4954402;28;20019;-87
2021/07/08 07:22:12;;;;;;;4.57;3.60;;;19.10;1.00;;;;;;4956722;28;20094;-87
2021/07/08 07:24:40;;;;;;;6.32;4.13;;;19.00;1.00;;;;;;4956799;28;20015;-87
2021/07/08 07:27:05;;;;;;;6.10;3.53;;;19.00;1.00;;;;;;4957125;28;20031;-86
2021/07/08 07:29:31;;;;;;;8.38;3.83;;;19.10;1.00;;;;;;4956513;28;20168;-87
2021/07/08 07:31:57;;;;;;;4.07;2.90;;;19.20;1.00;;;;;;4956385;28;20043;-86
2021/07/08 07:34:22;;;;;;;5.40;2.92;;;19.20;1.00;;;;;;4956531;28;20032;-86
2021/07/08 07:36:48;;;;;;;7.95;3.28;;;19.20;1.00;;;;;;4956880;28;20465;-87
2021/07/08 07:39:13;;;;;;;2.85;2.35;;;19.30;1.00;;;;;;4958195;28;20154;-87
2021/07/08 07:41:39;;;;;;;4.25;2.30;;;19.50;1.00;;;;;;4956474;28;20070;-87
2021/07/08 07:44:05;;;;;;;2.88;2.00;;;19.50;1.00;;;;;;4956372;28;20062;-87
2021/07/08 07:46:30;;;;;;;2.72;2.10;;;19.50;1.00;;;;;;4954444;28;20113;-86
2021/07/08 07:48:56;;;;;;;2.80;2.10;;;19.70;1.00;;;;;;4955389;28;20429;-87
2021/07/08 07:51:22;;;;;;;3.38;2.17;;;19.50;1.00;;;;;;4954680;28;20050;-87
2021/07/08 07:53:48;;;;;;;3.90;2.47;;;19.80;1.00;;;;;;4956529;28;20366;-86
2021/07/08 07:56:16;;;;;;;2.88;2.35;;;19.80;1.00;;;;;;4955498;28;20045;-87
2021/07/08 07:58:42;;;;;;;3.72;2.65;;;20.00;1.00;;;;;;4956364;28;20504;-87
2021/07/08 08:01:07;;;;;;;2.97;2.67;;;20.50;1.00;;;;;;4955149;28;20026;-87
2021/07/08 08:03:33;;;;;;;4.78;3.33;;;20.90;1.00;;;;;;4971844;28;20381;-87
2021/07/08 08:08:43;;;;;;;3.40;2.90;;;20.80;1.00;;;;;;4956798;28;20588;-87
2021/07/08 08:11:10;;;;;;;4.90;2.88;;;20.60;1.00;;;;;;4956341;28;20110;-87
2021/07/08 08:13:37;;;;;;;5.18;3.00;;;20.70;1.00;;;;;;4955597;28;20030;-87
2021/07/08 08:16:05;;;;;;;4.20;2.70;;;20.60;1.00;;;;;;4955299;28;20389;-87
2021/07/08 08:18:31;;;;;;;4.53;2.95;;;20.70;1.00;;;;;;4955739;28;20031;-86
2021/07/08 08:20:56;;;;;;;4.32;2.40;;;20.80;1.00;;;;;;4955940;28;20042;-87
2021/07/08 08:23:22;;;;;;;5.93;2.60;;;20.80;1.00;;;;;;4956027;28;20019;-87
2021/07/08 08:25:48;;;;;;;3.10;2.58;;;20.70;1.00;;;;;;4956224;28;20529;-88
2021/07/08 08:28:14;;;;;;;4.90;2.45;;;20.70;1.00;;;;;;4955188;28;20083;-87
2021/07/08 08:30:40;;;;;;;3.90;2.50;;;20.70;1.00;;;;;;4955314;28;20043;-87
2021/07/08 08:33:06;;;;;;;3.08;2.58;;;20.60;1.00;;;;;;4955025;28;20047;-87
2021/07/08 08:35:32;;;;;;;3.95;2.33;;;20.60;1.00;;;;;;4954687;28;20101;-86
2021/07/08 08:37:58;;;;;;;2.83;2.55;;;20.50;1.00;;;;;;4955795;28;20042;-87
2021/07/08 08:40:24;;;;;;;3.92;2.50;;;20.30;1.00;;;;;;4954589;28;20027;-87
2021/07/08 08:42:50;;;;;;;3.40;2.58;;;20.00;1.00;;;;;;4955827;28;20070;-87
2021/07/08 08:45:19;;;;;;;3.67;2.58;;;20.00;1.00;;;;;;4955322;28;20392;-87
2021/07/08 08:47:56;;;;;;;6.18;2.80;;;19.70;1.00;;;;;;4955409;28;20078;-86
2021/07/08 08:50:24;;;;;;;4.85;2.60;;;19.40;1.00;;;;;;4955214;28;20066;-86
2021/07/08 08:52:50;;;;;;;3.60;2.80;;;19.30;1.00;;;;;;4955428;28;20031;-86
2021/07/08 08:55:16;;;;;;;4.45;2.78;;;19.30;1.00;;;;;;4955423;28;20484;-87
2021/07/08 08:57:45;;;;;;;3.22;2.70;;;19.20;1.00;;;;;;4955143;28;20035;-87
2021/07/08 09:00:35;;;;;;;4.68;2.70;;;19.30;1.00;;;;;;4954850;28;20027;-87
2021/07/08 09:03:02;;;;;;;4.15;2.35;;;19.40;1.00;;;;;;4952271;28;20059;-89
2021/07/08 09:05:28;;;;;;;3.00;2.53;;;19.40;1.00;;;;;;4955467;28;20042;-87
2021/07/08 09:08:25;;;;;;;2.97;2.67;;;19.40;1.00;;;;;;4955173;28;20035;-87
2021/07/08 09:11:14;;;;;;;3.40;2.90;;;19.30;1.00;;;;;;4955316;28;20043;-86
2021/07/08 09:13:43;;;;;;;4.38;2.85;;;19.30;1.00;;;;;;4953406;28;20080;-87
2021/07/08 09:16:27;;;;;;;2.97;2.70;;;19.20;1.00;;;;;;4954201;28;20086;-87
2021/07/08 09:19:00;;;;;;;4.97;2.95;;;19.10;1.00;;;;;;4954864;28;20027;-87
2021/07/08 09:21:28;;;;;;;5.93;2.55;;;19.10;1.00;;;;;;4969614;28;20027;-86
2021/07/08 09:24:05;;;;;;;4.85;2.90;;;19.40;1.00;;;;;;4954929;28;20065;-87
2021/07/08 09:26:31;;;;;;;5.10;2.75;;;19.50;1.00;;;;;;4954617;28;20038;-87
2021/07/08 09:29:18;;;;;;;4.07;2.65;;;19.60;1.00;;;;;;4970163;28;20492;-87
2021/07/08 09:31:53;;;;;;;4.70;3.30;;;19.50;1.00;;;;;;4954564;28;20461;-86
2021/07/08 09:34:39;;;;;;;4.82;3.30;;;19.60;1.00;;;;;;4953854;28;20531;-87
2021/07/08 09:37:16;;;;;;;4.10;2.75;;;19.50;1.00;;;;;;4952004;28;20042;-86
2021/07/08 09:39:46;;;;;;;5.28;2.60;;;19.50;1.00;;;;;;4954484;28;20035;-87
2021/07/08 09:42:17;;;;;;;5.10;2.53;;;19.70;1.00;;;;;;4954264;28;20035;-86
2021/07/08 09:44:43;;;;;;;4.32;2.80;;;19.70;1.00;;;;;;4953837;28;20031;-86
2021/07/08 09:47:24;;;;;;;3.35;2.50;;;19.60;1.00;;;;;;4952877;28;20031;-87
2021/07/08 09:49:50;;;;;;;4.95;3.05;;;19.60;1.00;;;;;;4954170;28;20118;-87
2021/07/08 09:52:16;;;;;;;4.22;2.90;;;19.60;1.00;;;;;;4953656;28;20035;-87
2021/07/08 09:57:30;;;;;;;3.70;2.88;;;19.70;1.00;;;;;;4953881;28;20027;-87
2021/07/08 09:59:56;;;;;;;5.40;2.90;;;19.70;1.00;;;;;;4954129;28;20448;-87
2021/07/08 10:02:30;;;;;;;5.47;3.17;;;19.80;1.00;;;;;;4954610;28;20031;-86
2021/07/08 10:04:58;;;;;;;4.65;2.97;;;19.90;1.00;;;;;;4939607;28;20026;-86
2021/07/08 10:07:24;;;;;;;2.80;2.60;;;20.00;1.00;;;;;;4953393;28;20057;-87
2021/07/08 10:09:50;;;;;;;6.22;3.00;;;20.20;1.00;;;;;;4954186;28;20055;-87
2021/07/08 10:12:16;;;;;;;6.30;3.10;;;20.40;1.00;;;;;;4952699;28;20071;-86
2021/07/08 10:14:43;;;;;;;4.88;2.80;;;20.50;1.00;;;;;;4969045;28;20027;-86
2021/07/08 10:17:11;;;;;;;5.30;2.80;;;20.50;1.00;;;;;;4954245;28;20058;-87
2021/07/08 10:19:38;;;;;;;3.15;2.78;;;20.60;1.00;;;;;;4953949;28;20030;-87
2021/07/08 10:22:06;;;;;;;3.45;2.80;;;20.60;1.00;;;;;;4953386;28;20514;-86
2021/07/08 10:24:31;;;;;;;5.25;2.70;;;20.50;1.00;;;;;;4954572;28;20035;-87
2021/07/08 10:26:57;;;;;;;3.83;3.03;;;20.60;1.00;;;;;;4952710;28;20050;-86
2021/07/08 10:29:24;;;;;;;4.55;2.90;;;20.80;1.00;;;;;;4954017;28;20019;-87
2021/07/08 10:31:51;;;;;;;5.18;2.85;;;20.90;1.00;;;;;;4954726;28;20042;-86
2021/07/08 10:34:19;;;;;;;5.47;3.13;;;21.00;99.90;;;;;;4952077;29;20020;-87
2021/07/08 10:36:49;;;;;;;3.47;2.90;;;21.10;99.90;;;;;;4953955;28;20070;-87
2021/07/08 10:39:19;;;;;;;4.43;2.85;;;20.90;1.00;;;;;;4968719;28;20032;-87
2021/07/08 10:41:58;;;;;;;4.00;3.20;;;20.80;99.90;;;;;;4953937;28;20051;-87
2021/07/08 10:44:40;;;;;;;3.80;3.05;;;20.80;1.00;;;;;;4954562;28;20033;-87
2021/07/08 10:47:30;;;;;;;3.30;3.00;;;20.80;1.00;;;;;;4940368;28;20031;-87
2021/07/08 10:49:56;;;;;;;2.83;2.60;;;20.70;99.90;;;;;;4938902;28;20034;-86
2021/07/08 10:52:42;;;;;;;5.22;3.20;;;20.90;99.90;;;;;;4953416;28;20519;-87
2021/07/08 10:55:09;;;;;;;5.45;3.30;;;21.10;99.90;;;;;;4952932;28;20063;-86
2021/07/08 10:57:39;;;;;;;3.42;3.05;;;21.40;99.90;;;;;;4957494;28;20034;-86
2021/07/08 11:00:29;;;;;;;6.15;3.30;;;21.70;99.90;;;;;;4957180;28;20027;-87
2021/07/08 11:02:55;;;;;;;8.73;2.75;;;22.20;99.90;;;;;;4957734;28;20516;-87
2021/07/08 11:05:52;;;;;;;5.25;3.13;;;22.40;99.90;;;;;;4956921;28;20142;-87
2021/07/08 11:08:46;;;;;;;5.05;3.17;;;22.90;99.90;;;;;;4945617;28;20134;-87
2021/07/08 11:11:32;;;;;;;4.20;3.15;;;23.00;99.90;;;;;;4944341;28;20039;-87
2021/07/08 11:14:20;;;;;;;3.40;3.10;;;22.90;99.90;;;;;;4935281;28;20529;-87
2021/07/08 11:16:57;;;;;;;3.83;3.05;;;23.30;99.90;;;;;;4958170;28;20586;-87
2021/07/08 11:19:23;;;;;;;5.97;3.00;;;23.80;99.90;;;;;;4952429;28;20031;-87
2021/07/08 11:21:49;;;;;;;3.67;3.08;;;23.50;99.90;;;;;;4957443;28;20058;-87
2021/07/08 11:24:20;;;;;;;4.05;2.90;;;23.60;99.90;;;;;;4971457;28;20039;-86
2021/07/08 11:26:58;;;;;;;8.20;3.10;;;23.90;99.90;;;;;;4957044;28;20071;-86
2021/07/08 11:29:43;;;;;;;3.15;2.90;;;24.30;99.90;;;;;;4957469;28;20463;-87
2021/07/08 11:32:39;;;;;;;4.70;2.60;;;24.30;99.90;;;;;;4943585;28;20031;-87
2021/07/08 11:35:14;;;;;;;4.22;3.10;;;24.30;99.90;;;;;;4943498;28;20050;-87
2021/07/08 11:37:41;;;;;;;4.18;2.80;;;24.40;99.90;;;;;;4957228;28;20035;-87
2021/07/08 11:40:13;;;;;;;4.28;2.92;;;24.80;99.90;;;;;;4954510;28;20400;-87
2021/07/08 11:42:40;;;;;;;4.65;3.03;;;24.90;99.90;;;;;;4957055;28;20030;-87
2021/07/08 11:45:15;;;;;;;3.20;2.75;;;25.30;99.90;;;;;;4956727;28;20028;-87
2021/07/08 11:47:47;;;;;;;4.93;2.90;;;25.20;99.90;;;;;;4958323;28;20444;-87
2021/07/08 11:50:26;;;;;;;5.15;2.97;;;24.90;99.90;;;;;;4956511;28;20065;-87
2021/07/08 11:53:10;;;;;;;3.60;3.08;;;24.70;99.90;;;;;;4956415;28;20518;-87
2021/07/08 11:55:39;;;;;;;3.72;3.00;;;24.30;99.90;;;;;;4954387;28;20054;-87
2021/07/08 11:58:05;;;;;;;2.83;2.63;;;23.80;99.90;;;;;;4955522;28;20031;-87
2021/07/08 12:00:35;;;;;;;6.00;2.95;;;23.70;99.90;;;;;;4956966;28;20027;-87
2021/07/08 12:03:16;;;;;;;3.72;3.00;;;23.70;99.90;;;;;;4956216;28;20039;-87
2021/07/08 12:05:42;;;;;;;3.33;2.70;;;23.80;99.90;;;;;;4955957;28;20031;-87
2021/07/08 12:08:07;;;;;;;3.50;2.88;;;24.70;99.90;;;;;;4954917;28;20431;-87
2021/07/08 12:10:34;;;;;;;4.38;2.67;;;27.50;99.90;;;;;;4954046;28;20504;-87
2021/07/08 12:13:01;;;;;;;3.92;3.00;;;26.40;99.90;;;;;;4956162;28;20035;-86
2021/07/08 12:15:28;;;;;;;4.47;2.90;;;25.10;99.90;;;;;;4956456;28;20184;-87
2021/07/08 12:18:00;;;;;;;3.10;2.67;;;24.30;99.90;;;;;;4955889;28;20062;-87
2021/07/08 12:20:35;;;;;;;2.85;2.60;;;23.80;99.90;;;;;;4955758;28;20031;-87
2021/07/08 12:23:04;;;;;;;5.28;2.70;;;23.50;99.90;;;;;;4941544;28;20103;-87
2021/07/08 12:25:30;;;;;;;4.38;2.75;;;23.30;99.90;;;;;;4954787;28;20022;-87
2021/07/08 12:27:57;;;;;;;3.08;2.50;;;23.30;99.90;;;;;;4956649;28;20042;-87
2021/07/08 12:30:28;;;;;;;4.63;2.60;;;23.40;99.90;;;;;;4955298;28;20082;-87
2021/07/08 12:33:07;;;;;;;3.30;2.50;;;23.90;99.90;;;;;;4957855;28;20462;-87
2021/07/08 12:35:38;;;;;;;3.65;2.30;;;27.20;99.90;;;;;;4955856;28;20074;-87
2021/07/08 12:38:03;;;;;;;4.20;2.53;;;31.30;99.90;;;;;;4955548;28;20039;-87
2021/07/08 12:40:29;;;;;;;5.25;2.42;;;33.00;99.90;;;;;;4955227;28;20027;-88
2021/07/08 12:42:56;;;;;;;2.13;1.83;;;32.60;99.90;;;;;;4955804;28;20440;-87
2021/07/08 12:45:28;;;;;;;5.00;2.47;;;29.20;99.90;;;;;;4955924;28;20020;-87
2021/07/08 12:47:55;;;;;;;3.10;2.25;;;27.50;99.90;;;;;;4955699;28;20041;-86
2021/07/08 12:50:23;;;;;;;3.25;2.45;;;26.30;99.90;;;;;;4955391;28;20039;-87
2021/07/08 12:52:49;;;;;;;4.60;2.53;;;25.10;99.90;;;;;;4954979;28;20039;-87
2021/07/08 12:55:40;;;;;;;4.47;2.65;;;24.30;99.90;;;;;;4954934;28;20023;-87
2021/07/08 12:58:09;;;;;;;2.90;2.70;;;23.90;99.90;;;;;;4952483;29;20519;-87
2021/07/08 13:00:37;;;;;;;5.70;2.95;;;23.30;99.90;;;;;;4955260;28;20027;-87
2021/07/08 13:03:04;;;;;;;3.55;3.13;;;22.90;99.90;;;;;;4967615;28;20032;-86
2021/07/08 13:05:36;;;;;;;4.80;3.40;;;22.70;99.90;;;;;;4944176;28;20483;-86